createdAt,value
2023-02-25T00:01:36.953Z,79.20
2023-02-25T00:04:04.243Z,79.20
2023-02-25T00:06:31.259Z,78.90
2023-02-25T00:08:58.547Z,80.60
2023-02-25T00:11:26.321Z,79.20
2023-02-25T00:13:53.931Z,80.00
2023-02-25T00:16:23.438Z,79.40
2023-02-25T00:18:55.780Z,80.60
2023-02-25T00:21:23.018Z,81.50
2023-02-25T00:23:51.241Z,82.20
2023-02-25T00:26:18.669Z,80.80
2023-02-25T00:28:46.780Z,79.40
2023-02-25T00:31:22.112Z,79.20
2023-02-25T00:33:50.431Z,79.60
2023-02-25T00:36:21.281Z,80.10
2023-02-25T00:38:50.717Z,80.10
2023-02-25T00:41:20.098Z,79.60
2023-02-25T00:43:56.244Z,80.30
2023-02-25T00:46:23.874Z,80.30
2023-02-25T00:48:52.249Z,80.00
2023-02-25T00:51:24.424Z,81.00
2023-02-25T00:53:52.987Z,79.40
2023-02-25T00:56:20.721Z,79.70
2023-02-25T00:58:49.016Z,79.90
2023-02-25T01:01:31.480Z,79.80
2023-02-25T01:03:58.825Z,79.30
2023-02-25T01:06:27.920Z,80.00
2023-02-25T01:08:54.980Z,80.60
2023-02-25T01:11:29.509Z,80.70
2023-02-25T01:14:05.908Z,81.60
2023-02-25T01:16:35.293Z,81.00
2023-02-25T01:19:14.928Z,82.30
2023-02-25T01:21:44.738Z,81.40
2023-02-25T01:24:18.112Z,81.50
2023-02-25T01:26:46.243Z,81.70
2023-02-25T01:29:16.870Z,81.80
2023-02-25T01:31:44.572Z,82.10
2023-02-25T01:34:15.038Z,83.40
2023-02-25T01:36:42.503Z,84.90
2023-02-25T01:39:10.438Z,82.50
2023-02-25T01:41:38.201Z,82.30
2023-02-25T01:44:08.452Z,82.50
2023-02-25T01:46:36.996Z,82.10
2023-02-25T01:49:08.866Z,82.70
2023-02-25T01:51:37.083Z,83.30
2023-02-25T01:54:06.823Z,82.30
2023-02-25T01:56:36.023Z,82.40
2023-02-25T01:59:03.063Z,83.10
2023-02-25T02:01:33.947Z,84.80
2023-02-25T02:04:04.427Z,85.50
2023-02-25T02:06:43.185Z,85.10
2023-02-25T02:09:15.198Z,85.70
2023-02-25T02:11:42.714Z,85.60
2023-02-25T02:14:14.069Z,84.90
2023-02-25T02:16:44.278Z,84.30
2023-02-25T02:19:33.035Z,84.90
2023-02-25T02:22:14.746Z,86.40
2023-02-25T02:25:23.509Z,85.80
2023-02-25T02:28:16.885Z,87.20
2023-02-25T02:31:21.757Z,86.80
2023-02-25T02:34:16.910Z,87.10
2023-02-25T02:37:05.608Z,87.00
2023-02-25T02:39:36.846Z,85.90
2023-02-25T02:42:25.064Z,86.30
2023-02-25T02:45:19.417Z,86.10
2023-02-25T02:47:54.640Z,86.60
2023-02-25T02:50:36.287Z,86.10
2023-02-25T02:53:10.871Z,85.40
2023-02-25T02:55:43.410Z,85.70
2023-02-25T02:58:13.022Z,85.20
2023-02-25T03:00:44.888Z,84.90
2023-02-25T03:03:17.536Z,85.20
2023-02-25T03:05:49.810Z,85.20
2023-02-25T03:08:28.256Z,85.10
2023-02-25T03:10:55.628Z,86.40
2023-02-25T03:13:22.727Z,86.00
2023-02-25T03:15:52.192Z,86.10
2023-02-25T03:18:39.263Z,88.30
2023-02-25T03:21:13.613Z,86.60
2023-02-25T03:23:44.076Z,85.80
2023-02-25T03:26:28.515Z,85.30
2023-02-25T03:29:00.685Z,85.20
2023-02-25T03:31:27.996Z,84.30
2023-02-25T03:34:11.838Z,83.00
2023-02-25T03:36:54.016Z,82.70
2023-02-25T03:39:36.040Z,83.30
2023-02-25T03:42:05.892Z,84.40
2023-02-25T03:44:37.432Z,85.40
2023-02-25T03:47:07.145Z,84.50
2023-02-25T03:49:43.611Z,84.20
2023-02-25T03:52:15.106Z,86.00
2023-02-25T03:54:43.518Z,86.70
2023-02-25T03:57:10.521Z,86.70
2023-02-25T03:59:37.553Z,87.20
2023-02-25T04:02:04.796Z,87.30
2023-02-25T04:04:31.908Z,88.10
2023-02-25T04:06:58.825Z,87.70
2023-02-25T04:09:26.198Z,89.00
2023-02-25T04:11:57.031Z,88.30
2023-02-25T04:14:24.913Z,90.20
2023-02-25T04:16:51.839Z,88.90
2023-02-25T04:19:18.800Z,88.30
2023-02-25T04:21:45.895Z,87.40
2023-02-25T04:24:13.298Z,86.80
2023-02-25T04:26:40.069Z,86.60
2023-02-25T04:29:07.052Z,87.10
2023-02-25T04:31:34.106Z,89.30
2023-02-25T04:34:01.045Z,89.80
2023-02-25T04:36:34.286Z,88.90
2023-02-25T04:39:04.739Z,88.80
2023-02-25T04:41:33.512Z,87.70
2023-02-25T04:44:01.008Z,88.20
2023-02-25T04:46:27.856Z,88.50
2023-02-25T04:48:54.732Z,87.60
2023-02-25T04:51:21.740Z,86.00
2023-02-25T04:53:48.883Z,85.10
2023-02-25T04:56:16.382Z,85.60
2023-02-25T04:58:44.321Z,85.90
2023-02-25T05:01:12.194Z,86.20
2023-02-25T05:03:39.226Z,86.20
2023-02-25T05:06:06.852Z,86.40
2023-02-25T05:08:35.204Z,86.70
2023-02-25T05:11:03.061Z,87.30
2023-02-25T05:13:30.200Z,87.60
2023-02-25T05:16:08.806Z,88.20
2023-02-25T05:18:37.582Z,88.20
2023-02-25T05:21:05.188Z,88.60
2023-02-25T05:23:32.049Z,88.30
2023-02-25T05:26:00.352Z,88.30
2023-02-25T05:28:27.221Z,88.30
2023-02-25T05:30:55.308Z,88.70
2023-02-25T05:33:23.429Z,89.40
2023-02-25T05:35:51.333Z,90.30
2023-02-25T05:38:18.067Z,91.40
2023-02-25T05:40:44.896Z,91.40
2023-02-25T05:43:11.717Z,91.10
2023-02-25T05:45:38.503Z,91.00
2023-02-25T05:48:05.633Z,91.10
2023-02-25T05:50:34.702Z,91.00
2023-02-25T05:53:01.599Z,90.90
2023-02-25T05:55:28.561Z,91.00
2023-02-25T05:57:55.410Z,90.90
2023-02-25T06:00:22.751Z,90.80
2023-02-25T06:02:49.668Z,91.30
2023-02-25T06:05:17.507Z,91.40
2023-02-25T06:07:44.329Z,91.70
2023-02-25T06:10:11.851Z,91.20
2023-02-25T06:12:38.757Z,91.00
2023-02-25T06:15:06.050Z,90.60
2023-02-25T06:17:33.107Z,90.40
2023-02-25T06:20:01.244Z,90.50
2023-02-25T06:22:28.131Z,90.40
2023-02-25T06:24:54.945Z,90.10
2023-02-25T06:27:22.294Z,89.70
2023-02-25T06:29:49.493Z,88.90
2023-02-25T06:32:17.234Z,89.30
2023-02-25T06:34:44.077Z,90.10
2023-02-25T06:37:10.882Z,90.20
2023-02-25T06:39:37.713Z,90.20
2023-02-25T06:42:04.783Z,90.30
2023-02-25T06:44:31.665Z,90.00
2023-02-25T06:46:58.480Z,89.30
2023-02-25T06:49:25.263Z,90.00
2023-02-25T06:51:52.105Z,90.40
2023-02-25T06:54:19.470Z,90.70
2023-02-25T06:56:46.346Z,90.40
2023-02-25T06:59:13.409Z,88.90
2023-02-25T07:01:40.611Z,87.20
2023-02-25T07:04:07.551Z,87.60
2023-02-25T07:06:34.526Z,87.30
2023-02-25T07:09:01.540Z,86.80
2023-02-25T07:11:31.677Z,85.90
2023-02-25T07:13:58.863Z,85.10
2023-02-25T07:16:26.713Z,85.10
2023-02-25T07:18:53.693Z,85.70
2023-02-25T07:21:20.588Z,85.60
2023-02-25T07:23:47.547Z,84.50
2023-02-25T07:26:15.835Z,83.90
2023-02-25T07:28:43.333Z,82.90
2023-02-25T07:31:17.243Z,82.20
2023-02-25T07:33:44.709Z,81.10
2023-02-25T07:36:12.304Z,80.70
2023-02-25T07:38:39.852Z,81.10
2023-02-25T07:41:16.231Z,81.80
2023-02-25T07:43:44.275Z,81.90
2023-02-25T07:46:13.410Z,81.60
2023-02-25T07:48:40.570Z,81.40
2023-02-25T07:51:12.142Z,80.70
2023-02-25T07:53:39.437Z,79.40
2023-02-25T07:56:07.735Z,78.90
2023-02-25T07:58:35.564Z,78.60
2023-02-25T08:01:07.188Z,78.00
2023-02-25T08:03:34.111Z,76.60
2023-02-25T08:06:02.794Z,76.30
2023-02-25T08:08:29.774Z,76.00
2023-02-25T08:10:56.694Z,75.10
2023-02-25T08:13:23.660Z,74.50
2023-02-25T08:15:50.670Z,74.20
2023-02-25T08:18:17.754Z,74.80
2023-02-25T08:20:48.229Z,74.70
2023-02-25T08:23:15.437Z,74.40
2023-02-25T08:25:42.351Z,73.50
2023-02-25T08:28:09.166Z,72.80
2023-02-25T08:30:36.255Z,71.80
2023-02-25T08:33:03.254Z,71.50
2023-02-25T08:35:30.262Z,71.90
2023-02-25T08:37:57.046Z,71.00
2023-02-25T08:40:23.888Z,70.50
2023-02-25T08:42:50.845Z,70.10
2023-02-25T08:45:17.678Z,69.80
2023-02-25T08:47:44.513Z,70.10
2023-02-25T08:50:11.886Z,70.10
2023-02-25T08:52:41.184Z,69.80
2023-02-25T08:55:09.630Z,70.10
2023-02-25T08:57:36.495Z,69.80
2023-02-25T09:00:06.714Z,69.50
2023-02-25T09:02:33.573Z,69.10
2023-02-25T09:05:00.470Z,68.40
2023-02-25T09:07:27.613Z,67.80
2023-02-25T09:09:54.478Z,67.10
2023-02-25T09:12:23.612Z,66.60
2023-02-25T09:14:51.594Z,66.40
2023-02-25T09:17:18.650Z,64.80
2023-02-25T09:19:45.445Z,64.50
2023-02-25T09:22:12.277Z,64.50
2023-02-25T09:24:39.200Z,63.90
2023-02-25T09:27:08.173Z,63.40
2023-02-25T09:29:38.992Z,63.00
2023-02-25T09:32:07.059Z,62.40
2023-02-25T09:34:34.167Z,61.70
2023-02-25T09:37:05.497Z,61.00
2023-02-25T09:39:32.518Z,60.70
2023-02-25T09:42:09.588Z,60.40
2023-02-25T09:44:53.283Z,59.60
2023-02-25T09:47:27.044Z,59.40
2023-02-25T09:50:06.485Z,58.40
2023-02-25T09:52:39.265Z,58.00
2023-02-25T09:55:08.435Z,57.40
2023-02-25T09:57:43.700Z,56.60
2023-02-25T10:00:23.175Z,56.40
2023-02-25T10:03:05.951Z,56.10
2023-02-25T10:06:00.909Z,56.50
2023-02-25T10:08:41.026Z,56.20
2023-02-25T10:11:13.510Z,54.60
2023-02-25T10:14:09.023Z,54.70
2023-02-25T10:17:05.756Z,54.20
2023-02-25T10:19:41.900Z,54.70
2023-02-25T10:22:49.532Z,54.20
2023-02-25T10:25:18.640Z,54.00
2023-02-25T10:28:10.930Z,54.00
2023-02-25T10:30:52.641Z,53.10
2023-02-25T10:33:24.569Z,53.00
2023-02-25T10:36:07.884Z,52.50
2023-02-25T10:38:38.280Z,52.40
2023-02-25T10:41:05.622Z,51.70
2023-02-25T10:43:34.671Z,51.60
2023-02-25T10:46:13.151Z,51.60
2023-02-25T10:48:44.180Z,51.40
2023-02-25T10:51:16.497Z,51.40
2023-02-25T10:53:59.383Z,51.00
2023-02-25T10:56:30.944Z,50.80
2023-02-25T10:59:20.617Z,50.90
2023-02-25T11:01:48.707Z,50.00
2023-02-25T11:04:20.395Z,50.30
2023-02-25T11:06:48.788Z,51.00
2023-02-25T11:09:22.011Z,49.90
2023-02-25T11:12:12.089Z,49.70
2023-02-25T11:14:39.975Z,49.80
2023-02-25T11:17:12.280Z,49.20
2023-02-25T11:19:42.495Z,49.50
2023-02-25T11:22:28.493Z,48.80
2023-02-25T11:25:04.730Z,49.40
2023-02-25T11:27:43.158Z,49.90
2023-02-25T11:30:12.786Z,48.20
2023-02-25T11:32:58.716Z,48.40
2023-02-25T11:35:38.335Z,49.30
2023-02-25T11:38:25.785Z,48.00
2023-02-25T11:40:53.050Z,48.80
2023-02-25T11:46:01.736Z,48.70
2023-02-25T11:48:53.100Z,48.40
2023-02-25T11:51:30.302Z,48.40
2023-02-25T11:54:26.049Z,48.40
2023-02-25T11:57:15.461Z,47.80
2023-02-25T12:00:11.568Z,48.20
2023-02-25T12:02:41.417Z,47.90
2023-02-25T12:05:14.164Z,48.50
2023-02-25T12:08:12.379Z,48.50
2023-02-25T12:10:49.526Z,48.20
2023-02-25T12:13:38.060Z,46.50
2023-02-25T12:16:44.474Z,46.90
2023-02-25T12:19:37.345Z,47.90
2023-02-25T12:22:29.449Z,47.20
2023-02-25T12:25:21.172Z,47.40
2023-02-25T12:27:57.976Z,47.60
2023-02-25T12:30:52.852Z,46.40
2023-02-25T12:33:51.084Z,46.40
2023-02-25T12:36:46.763Z,46.50
2023-02-25T12:39:38.329Z,46.20
2023-02-25T12:42:14.686Z,47.10
2023-02-25T12:45:03.367Z,46.90
2023-02-25T12:48:01.212Z,46.80
2023-02-25T12:51:05.833Z,46.10
2023-02-25T12:53:58.044Z,46.50
2023-02-25T12:56:43.957Z,45.70
2023-02-25T12:59:33.281Z,46.10
2023-02-25T13:02:09.121Z,45.90
2023-02-25T13:04:48.450Z,46.30
2023-02-25T13:07:38.641Z,45.80
2023-02-25T13:10:33.153Z,45.80
2023-02-25T13:13:33.738Z,45.00
2023-02-25T13:16:26.274Z,45.30
2023-02-25T13:19:26.411Z,45.80
2023-02-25T13:21:59.263Z,45.40
2023-02-25T13:24:44.839Z,45.60
2023-02-25T13:27:15.086Z,44.70
2023-02-25T13:29:57.763Z,45.60
2023-02-25T13:33:11.349Z,44.60
2023-02-25T13:36:05.765Z,44.70
2023-02-25T13:38:44.169Z,44.40
2023-02-25T13:41:31.738Z,44.30
2023-02-25T13:44:16.811Z,44.80
2023-02-25T13:47:04.707Z,44.90
2023-02-25T13:49:45.215Z,44.80
2023-02-25T13:52:36.544Z,45.00
2023-02-25T13:55:27.244Z,44.30
2023-02-25T13:58:14.304Z,43.90
2023-02-25T14:01:14.654Z,44.50
2023-02-25T14:03:52.291Z,44.20
2023-02-25T14:06:39.661Z,45.00
2023-02-25T14:09:30.834Z,45.20
2023-02-25T14:12:39.196Z,44.90
2023-02-25T14:15:28.968Z,44.50
2023-02-25T14:18:25.776Z,44.50
2023-02-25T14:21:14.483Z,44.10
2023-02-25T14:23:47.734Z,44.40
2023-02-25T14:26:22.822Z,45.10
2023-02-25T14:29:01.771Z,45.20
2023-02-25T14:31:51.803Z,44.90
2023-02-25T14:34:44.346Z,44.90
2023-02-25T14:37:37.058Z,44.20
2023-02-25T14:40:24.321Z,44.50
2023-02-25T14:43:05.168Z,44.50
2023-02-25T14:45:44.584Z,44.40
2023-02-25T14:48:30.467Z,45.50
2023-02-25T14:51:09.778Z,45.80
2023-02-25T14:53:53.513Z,45.40
2023-02-25T14:56:29.734Z,45.50
2023-02-25T14:59:34.568Z,45.30
2023-02-25T15:02:28.779Z,45.60
2023-02-25T15:05:11.269Z,45.10
2023-02-25T15:08:07.143Z,45.00
2023-02-25T15:10:34.278Z,44.90
2023-02-25T15:13:17.210Z,44.60
2023-02-25T15:16:03.051Z,45.20
2023-02-25T15:19:00.791Z,45.70
2023-02-25T15:21:33.900Z,45.80
2023-02-25T15:24:01.355Z,46.00
2023-02-25T15:26:46.869Z,44.70
2023-02-25T15:29:40.467Z,45.00
2023-02-25T15:32:30.911Z,45.80
2023-02-25T15:35:13.365Z,45.70
2023-02-25T15:37:55.312Z,45.20
2023-02-25T15:40:24.336Z,45.00
2023-02-25T15:42:55.862Z,45.60
2023-02-25T15:45:28.958Z,45.60
2023-02-25T15:48:08.399Z,45.50
2023-02-25T15:50:47.404Z,45.40
2023-02-25T15:53:26.466Z,46.20
2023-02-25T15:56:03.749Z,46.00
2023-02-25T15:58:30.884Z,46.00
2023-02-25T16:01:07.519Z,46.40
2023-02-25T16:03:34.898Z,46.60
2023-02-25T16:06:14.877Z,46.90
2023-02-25T16:09:05.512Z,46.40
2023-02-25T16:11:43.228Z,47.00
2023-02-25T16:14:23.767Z,47.40
2023-02-25T16:16:59.966Z,47.30
2023-02-25T16:19:30.916Z,47.50
2023-02-25T16:22:01.741Z,47.10
2023-02-25T16:24:29.598Z,47.70
2023-02-25T16:26:59.721Z,47.60
2023-02-25T16:29:59.343Z,48.00
2023-02-25T16:32:49.411Z,48.10
2023-02-25T16:35:25.264Z,48.00
2023-02-25T16:38:22.318Z,48.00
2023-02-25T16:40:49.990Z,48.50
2023-02-25T16:43:27.114Z,48.20
2023-02-25T16:46:02.213Z,48.30
2023-02-25T16:48:38.425Z,48.70
2023-02-25T16:51:34.709Z,48.60
2023-02-25T16:54:10.732Z,49.00
2023-02-25T16:56:38.192Z,48.60
2023-02-25T16:59:14.178Z,48.50
2023-02-25T17:01:48.763Z,48.80
2023-02-25T17:04:26.656Z,48.70
2023-02-25T17:07:13.540Z,49.20
2023-02-25T17:09:52.085Z,49.20
2023-02-25T17:12:41.334Z,49.10
2023-02-25T17:15:15.341Z,49.50
2023-02-25T17:17:44.529Z,49.60
2023-02-25T17:20:24.618Z,50.30
2023-02-25T17:22:52.363Z,50.60
2023-02-25T17:25:21.108Z,50.90
2023-02-25T17:27:50.112Z,51.20
2023-02-25T17:30:46.366Z,51.40
2023-02-25T17:33:24.594Z,51.70
2023-02-25T17:35:57.544Z,51.60
2023-02-25T17:38:25.999Z,51.80
2023-02-25T17:40:55.373Z,51.80
2023-02-25T17:43:24.167Z,51.90
2023-02-25T17:46:01.368Z,52.20
2023-02-25T17:48:32.609Z,52.20
2023-02-25T17:51:00.306Z,52.20
2023-02-25T17:53:42.789Z,52.50
2023-02-25T17:56:16.089Z,52.40
2023-02-25T17:58:45.261Z,52.40
2023-02-25T18:01:29.408Z,52.30
2023-02-25T18:03:57.189Z,52.50
2023-02-25T18:06:41.100Z,52.40
2023-02-25T18:09:36.786Z,52.50
2023-02-25T18:12:07.356Z,52.40
2023-02-25T18:14:39.977Z,52.30
2023-02-25T18:17:25.921Z,52.50
2023-02-25T18:19:56.722Z,52.60
2023-02-25T18:22:30.255Z,52.60
2023-02-25T18:25:00.387Z,52.60
2023-02-25T18:27:32.887Z,53.00
2023-02-25T18:30:19.990Z,52.80
2023-02-25T18:32:47.363Z,52.80
2023-02-25T18:35:15.168Z,53.00
2023-02-25T18:37:43.464Z,53.30
2023-02-25T18:40:17.230Z,53.30
2023-02-25T18:42:44.244Z,53.70
2023-02-25T18:45:16.616Z,53.70
2023-02-25T18:47:43.606Z,53.70
2023-02-25T18:50:11.457Z,53.80
2023-02-25T18:52:38.981Z,54.10
2023-02-25T18:55:07.377Z,54.10
2023-02-25T18:57:34.430Z,54.20
2023-02-25T19:00:01.290Z,54.20
2023-02-25T19:02:34.509Z,54.20
2023-02-25T19:05:02.958Z,54.40
2023-02-25T19:07:33.340Z,54.60
2023-02-25T19:10:00.625Z,54.50
2023-02-25T19:12:30.291Z,54.30
2023-02-25T19:15:00.379Z,54.20
2023-02-25T19:17:31.161Z,54.10
2023-02-25T19:19:58.231Z,53.90
2023-02-25T19:22:26.008Z,53.90
2023-02-25T19:24:53.043Z,54.20
2023-02-25T19:27:23.317Z,54.30
2023-02-25T19:29:52.510Z,54.30
2023-02-25T19:32:21.117Z,54.40
2023-02-25T19:34:48.614Z,54.40
2023-02-25T19:37:17.596Z,54.70
2023-02-25T19:39:44.581Z,54.60
2023-02-25T19:42:12.245Z,54.80
2023-02-25T19:44:39.745Z,54.70
2023-02-25T19:47:08.021Z,54.70
2023-02-25T19:49:34.985Z,54.80
2023-02-25T19:52:01.946Z,55.30
2023-02-25T19:54:28.865Z,54.90
2023-02-25T19:56:55.942Z,55.10
2023-02-25T19:59:22.900Z,55.20
2023-02-25T20:01:50.238Z,55.30
2023-02-25T20:04:17.270Z,55.50
2023-02-25T20:06:44.387Z,55.60
2023-02-25T20:09:11.613Z,55.70
2023-02-25T20:11:38.834Z,55.80
2023-02-25T20:14:07.047Z,56.00
2023-02-25T20:16:34.948Z,56.00
2023-02-25T20:19:02.284Z,56.10
2023-02-25T20:21:29.648Z,56.20
2023-02-25T20:23:59.245Z,56.30
2023-02-25T20:26:28.742Z,56.40
2023-02-25T20:28:56.859Z,56.60
2023-02-25T20:31:25.097Z,56.80
2023-02-25T20:33:56.097Z,56.80
2023-02-25T20:36:29.617Z,56.90
2023-02-25T20:39:26.297Z,56.80
2023-02-25T20:41:54.364Z,56.90
2023-02-25T20:44:21.910Z,56.90
2023-02-25T20:46:49.460Z,57.00
2023-02-25T20:49:19.158Z,57.00
2023-02-25T20:51:47.731Z,57.10
2023-02-25T20:54:17.539Z,57.10
2023-02-25T20:56:45.534Z,57.40
2023-02-25T20:59:13.182Z,57.60
2023-02-25T21:01:41.037Z,57.50
2023-02-25T21:04:08.344Z,57.60
2023-02-25T21:06:39.421Z,57.80
2023-02-25T21:09:07.349Z,57.80
2023-02-25T21:11:34.428Z,57.90
2023-02-25T21:14:01.405Z,57.90
2023-02-25T21:16:28.680Z,58.00
2023-02-25T21:18:58.345Z,58.10
2023-02-25T21:21:26.868Z,58.20
2023-02-25T21:23:54.246Z,58.30
2023-02-25T21:26:21.770Z,58.40
2023-02-25T21:28:48.961Z,58.40
2023-02-25T21:31:17.217Z,58.30
2023-02-25T21:33:44.481Z,58.30
2023-02-25T21:36:11.561Z,58.20
2023-02-25T21:38:38.966Z,58.20
2023-02-25T21:41:14.990Z,58.10
2023-02-25T21:43:43.024Z,58.20
2023-02-25T21:46:12.628Z,58.20
2023-02-25T21:48:41.153Z,58.30
2023-02-25T21:51:15.792Z,58.30
2023-02-25T21:53:42.787Z,58.80
2023-02-25T21:56:16.452Z,59.00
2023-02-25T21:58:44.130Z,59.00
2023-02-25T22:01:28.022Z,59.10
2023-02-25T22:03:55.383Z,58.90
2023-02-25T22:06:24.111Z,58.90
2023-02-25T22:08:52.782Z,58.90
2023-02-25T22:11:32.624Z,59.20
2023-02-25T22:14:01.455Z,59.10
2023-02-25T22:16:29.311Z,59.30
2023-02-25T22:18:57.058Z,59.50
2023-02-25T22:21:26.272Z,59.10
2023-02-25T22:23:55.812Z,59.90
2023-02-25T22:26:26.142Z,60.30
2023-02-25T22:28:58.774Z,59.70
2023-02-25T22:31:26.638Z,59.60
2023-02-25T22:33:54.013Z,59.40
2023-02-25T22:36:21.106Z,59.30
2023-02-25T22:38:49.450Z,59.10
2023-02-25T22:41:20.439Z,59.20
2023-02-25T22:43:48.628Z,59.00
2023-02-25T22:46:27.986Z,59.20
2023-02-25T22:48:55.521Z,59.50
2023-02-25T22:51:24.624Z,59.20
2023-02-25T22:53:52.531Z,59.00
2023-02-25T22:56:20.222Z,58.70
2023-02-25T22:58:47.443Z,59.00
2023-02-25T23:01:16.434Z,59.20
2023-02-25T23:03:46.451Z,59.50
2023-02-25T23:06:15.838Z,59.90
2023-02-25T23:08:43.569Z,59.90
2023-02-25T23:11:20.973Z,59.70
2023-02-25T23:13:50.511Z,60.90
2023-02-25T23:16:28.078Z,59.60
2023-02-25T23:18:57.763Z,59.70
2023-02-25T23:21:25.373Z,59.60
2023-02-25T23:23:55.924Z,59.70
2023-02-25T23:26:26.220Z,59.80
2023-02-25T23:28:57.948Z,60.00
2023-02-25T23:31:45.632Z,60.40
2023-02-25T23:34:13.988Z,60.70
2023-02-25T23:36:43.388Z,60.00
2023-02-25T23:39:11.291Z,59.90
2023-02-25T23:41:38.445Z,60.00
2023-02-25T23:44:08.495Z,60.10
2023-02-25T23:46:36.514Z,61.60
2023-02-25T23:49:05.119Z,61.20
2023-02-25T23:51:32.576Z,60.70
2023-02-25T23:54:02.260Z,60.90
2023-02-25T23:56:31.093Z,61.10
2023-02-25T23:58:58.653Z,61.70
